sensor_id;sensor_type;location;lat;lon;timestamp;pressure;altitude;pressure_sealevel;temperature;humidity
65190;BME280;51777;53.570;9.984;2023-07-08T00:00:46;101943.53;;;19.17;100.00
65190;BME280;51777;53.570;9.984;2023-07-08T00:03:16;101934.13;;;19.00;100.00
65190;BME280;51777;53.570;9.984;2023-07-08T00:05:43;101936.56;;;19.01;100.00
65190;BME280;51777;53.570;9.984;2023-07-08T00:08:20;101933.13;;;19.01;100.00
65190;BME280;51777;53.570;9.984;2023-07-08T00:10:46;101936.75;;;19.00;100.00
65190;BME280;51777;53.570;9.984;2023-07-08T00:13:12;101922.31;;;18.96;100.00
65190;BME280;51777;53.570;9.984;2023-07-08T00:15:39;101925.75;;;18.96;100.00
65190;BME280;51777;53.570;9.984;2023-07-08T00:18:13;101922.38;;;18.88;100.00
65190;BME280;51777;53.570;9.984;2023-07-08T00:20:43;101918.13;;;18.87;100.00
65190;BME280;51777;53.570;9.984;2023-07-08T00:23:10;101919.25;;;18.84;100.00
65190;BME280;51777;53.570;9.984;2023-07-08T00:25:36;101921.06;;;18.84;100.00
65190;BME280;51777;53.570;9.984;2023-07-08T00:28:02;101910.28;;;18.78;100.00
65190;BME280;51777;53.570;9.984;2023-07-08T00:30:31;101918.00;;;18.72;100.00
65190;BME280;51777;53.570;9.984;2023-07-08T00:32:57;101914.44;;;18.65;100.00
65190;BME280;51777;53.570;9.984;2023-07-08T00:35:30;101914.59;;;18.63;100.00
65190;BME280;51777;53.570;9.984;2023-07-08T00:37:56;101920.84;;;18.54;100.00
65190;BME280;51777;53.570;9.984;2023-07-08T00:40:28;101915.78;;;18.53;100.00
65190;BME280;51777;53.570;9.984;2023-07-08T00:42:54;101914.63;;;18.47;100.00
65190;BME280;51777;53.570;9.984;2023-07-08T00:48:15;101913.97;;;18.45;100.00
65190;BME280;51777;53.570;9.984;2023-07-08T00:50:41;101913.00;;;18.46;100.00
65190;BME280;51777;53.570;9.984;2023-07-08T00:53:25;101909.72;;;18.44;100.00
65190;BME280;51777;53.570;9.984;2023-07-08T00:55:54;101902.38;;;18.39;100.00
65190;BME280;51777;53.570;9.984;2023-07-08T00:58:23;101900.59;;;18.40;100.00
65190;BME280;51777;53.570;9.984;2023-07-08T01:00:51;101898.31;;;18.37;100.00
65190;BME280;51777;53.570;9.984;2023-07-08T01:03:18;101899.44;;;18.34;100.00
65190;BME280;51777;53.570;9.984;2023-07-08T01:05:45;101902.75;;;18.28;100.00
65190;BME280;51777;53.570;9.984;2023-07-08T01:08:12;101902.91;;;18.27;100.00
65190;BME280;51777;53.570;9.984;2023-07-08T01:10:50;101896.88;;;18.26;100.00
65190;BME280;51777;53.570;9.984;2023-07-08T01:13:18;101901.75;;;18.21;100.00
65190;BME280;51777;53.570;9.984;2023-07-08T01:15:46;101902.28;;;18.16;100.00
65190;BME280;51777;53.570;9.984;2023-07-08T01:18:14;101904.59;;;18.11;100.00
65190;BME280;51777;53.570;9.984;2023-07-08T01:20:46;101898.03;;;18.07;100.00
65190;BME280;51777;53.570;9.984;2023-07-08T01:23:13;101894.78;;;18.05;100.00
65190;BME280;51777;53.570;9.984;2023-07-08T01:25:41;101891.69;;;18.02;100.00
65190;BME280;51777;53.570;9.984;2023-07-08T01:28:07;101892.66;;;18.01;100.00
65190;BME280;51777;53.570;9.984;2023-07-08T01:30:33;101890.22;;;17.83;100.00
65190;BME280;51777;53.570;9.984;2023-07-08T01:33:10;101886.13;;;17.72;100.00
65190;BME280;51777;53.570;9.984;2023-07-08T01:35:37;101880.75;;;17.74;100.00
65190;BME280;51777;53.570;9.984;2023-07-08T01:38:05;101879.75;;;17.83;100.00
65190;BME280;51777;53.570;9.984;2023-07-08T01:40:36;101879.56;;;17.84;100.00
65190;BME280;51777;53.570;9.984;2023-07-08T01:43:03;101876.31;;;17.82;100.00
65190;BME280;51777;53.570;9.984;2023-07-08T01:45:34;101871.25;;;17.81;100.00
65190;BME280;51777;53.570;9.984;2023-07-08T01:48:05;101873.22;;;17.79;100.00
65190;BME280;51777;53.570;9.984;2023-07-08T01:50:35;101869.78;;;17.78;100.00
65190;BME280;51777;53.570;9.984;2023-07-08T01:53:09;101878.28;;;17.72;100.00
65190;BME280;51777;53.570;9.984;2023-07-08T01:55:36;101871.88;;;17.67;100.00
65190;BME280;51777;53.570;9.984;2023-07-08T01:58:01;101873.34;;;17.53;100.00
65190;BME280;51777;53.570;9.984;2023-07-08T02:00:26;101875.63;;;17.56;100.00
65190;BME280;51777;53.570;9.984;2023-07-08T02:02:52;101877.59;;;17.54;100.00
65190;BME280;51777;53.570;9.984;2023-07-08T02:05:17;101874.66;;;17.57;100.00
65190;BME280;51777;53.570;9.984;2023-07-08T02:07:43;101874.19;;;17.53;100.00
65190;BME280;51777;53.570;9.984;2023-07-08T02:10:09;101873.81;;;17.48;100.00
65190;BME280;51777;53.570;9.984;2023-07-08T02:12:34;101876.63;;;17.39;100.00
65190;BME280;51777;53.570;9.984;2023-07-08T02:15:01;101868.75;;;17.30;100.00
65190;BME280;51777;53.570;9.984;2023-07-08T02:17:27;101865.66;;;17.35;100.00
65190;BME280;51777;53.570;9.984;2023-07-08T02:19:55;101866.81;;;17.32;100.00
65190;BME280;51777;53.570;9.984;2023-07-08T02:22:21;101867.81;;;17.40;100.00
65190;BME280;51777;53.570;9.984;2023-07-08T02:24:47;101873.84;;;17.40;100.00
65190;BME280;51777;53.570;9.984;2023-07-08T02:27:13;101876.28;;;17.33;100.00
65190;BME280;51777;53.570;9.984;2023-07-08T02:29:38;101865.50;;;17.28;100.00
65190;BME280;51777;53.570;9.984;2023-07-08T02:32:04;101857.47;;;17.22;100.00
65190;BME280;51777;53.570;9.984;2023-07-08T02:34:30;101860.75;;;17.24;100.00
65190;BME280;51777;53.570;9.984;2023-07-08T02:36:55;101869.25;;;17.26;100.00
65190;BME280;51777;53.570;9.984;2023-07-08T02:39:22;101861.72;;;17.23;100.00
65190;BME280;51777;53.570;9.984;2023-07-08T02:41:47;101865.47;;;17.20;100.00
65190;BME280;51777;53.570;9.984;2023-07-08T02:44:13;101863.69;;;17.21;100.00
65190;BME280;51777;53.570;9.984;2023-07-08T02:46:38;101859.91;;;17.23;100.00
65190;BME280;51777;53.570;9.984;2023-07-08T02:49:03;101865.97;;;17.16;100.00
65190;BME280;51777;53.570;9.984;2023-07-08T02:51:29;101862.06;;;17.12;100.00
65190;BME280;51777;53.570;9.984;2023-07-08T02:53:55;101871.00;;;17.09;100.00
65190;BME280;51777;53.570;9.984;2023-07-08T02:56:20;101873.28;;;17.04;100.00
65190;BME280;51777;53.570;9.984;2023-07-08T02:58:47;101882.59;;;17.07;100.00
65190;BME280;51777;53.570;9.984;2023-07-08T03:01:13;101879.16;;;16.98;100.00
65190;BME280;51777;53.570;9.984;2023-07-08T03:03:43;101878.53;;;17.04;100.00
65190;BME280;51777;53.570;9.984;2023-07-08T03:06:09;101874.75;;;17.07;100.00
65190;BME280;51777;53.570;9.984;2023-07-08T03:08:34;101875.13;;;17.12;100.00
65190;BME280;51777;53.570;9.984;2023-07-08T03:11:02;101879.34;;;17.05;100.00
65190;BME280;51777;53.570;9.984;2023-07-08T03:13:28;101872.31;;;17.05;100.00
65190;BME280;51777;53.570;9.984;2023-07-08T03:15:54;101878.03;;;17.09;100.00
65190;BME280;51777;53.570;9.984;2023-07-08T03:18:21;101875.41;;;17.09;100.00
65190;BME280;51777;53.570;9.984;2023-07-08T03:20:49;101873.16;;;17.14;100.00
65190;BME280;51777;53.570;9.984;2023-07-08T03:23:14;101863.97;;;17.10;100.00
65190;BME280;51777;53.570;9.984;2023-07-08T03:25:40;101874.44;;;17.10;100.00
65190;BME280;51777;53.570;9.984;2023-07-08T03:28:06;101878.69;;;17.11;100.00
65190;BME280;51777;53.570;9.984;2023-07-08T03:30:33;101871.53;;;17.13;100.00
65190;BME280;51777;53.570;9.984;2023-07-08T03:33:00;101874.47;;;17.18;100.00
65190;BME280;51777;53.570;9.984;2023-07-08T03:35:26;101884.25;;;17.16;100.00
65190;BME280;51777;53.570;9.984;2023-07-08T03:37:52;101884.91;;;17.18;100.00
65190;BME280;51777;53.570;9.984;2023-07-08T03:40:17;101873.16;;;17.22;100.00
65190;BME280;51777;53.570;9.984;2023-07-08T03:42:43;101866.00;;;17.24;100.00
65190;BME280;51777;53.570;9.984;2023-07-08T03:45:09;101875.75;;;17.22;100.00
65190;BME280;51777;53.570;9.984;2023-07-08T03:47:34;101873.84;;;17.24;100.00
65190;BME280;51777;53.570;9.984;2023-07-08T03:50:00;101870.25;;;17.25;100.00
65190;BME280;51777;53.570;9.984;2023-07-08T03:52:25;101877.75;;;17.28;100.00
65190;BME280;51777;53.570;9.984;2023-07-08T03:54:51;101872.84;;;17.25;100.00
65190;BME280;51777;53.570;9.984;2023-07-08T03:57:16;101868.75;;;17.22;100.00
65190;BME280;51777;53.570;9.984;2023-07-08T03:59:42;101872.69;;;17.26;100.00
65190;BME280;51777;53.570;9.984;2023-07-08T04:02:10;101877.09;;;17.26;100.00
65190;BME280;51777;53.570;9.984;2023-07-08T04:04:35;101866.31;;;17.29;100.00
65190;BME280;51777;53.570;9.984;2023-07-08T04:07:03;101870.25;;;17.25;100.00
65190;BME280;51777;53.570;9.984;2023-07-08T04:09:28;101873.66;;;17.33;100.00
65190;BME280;51777;53.570;9.984;2023-07-08T04:11:54;101869.91;;;17.36;100.00
65190;BME280;51777;53.570;9.984;2023-07-08T04:14:19;101877.09;;;17.34;100.00
65190;BME280;51777;53.570;9.984;2023-07-08T04:16:51;101871.41;;;17.39;100.00
65190;BME280;51777;53.570;9.984;2023-07-08T04:19:18;101876.94;;;17.44;100.00
65190;BME280;51777;53.570;9.984;2023-07-08T04:21:44;101874.00;;;17.47;100.00
65190;BME280;51777;53.570;9.984;2023-07-08T04:24:12;101877.59;;;17.54;100.00
65190;BME280;51777;53.570;9.984;2023-07-08T04:26:38;101880.38;;;17.52;100.00
65190;BME280;51777;53.570;9.984;2023-07-08T04:29:16;101874.66;;;17.57;100.00
65190;BME280;51777;53.570;9.984;2023-07-08T04:31:42;101873.84;;;17.65;100.00
65190;BME280;51777;53.570;9.984;2023-07-08T04:34:08;101872.22;;;17.72;100.00
65190;BME280;51777;53.570;9.984;2023-07-08T04:36:34;101875.19;;;17.77;100.00
65190;BME280;51777;53.570;9.984;2023-07-08T04:39:01;101872.75;;;17.75;100.00
65190;BME280;51777;53.570;9.984;2023-07-08T04:41:27;101868.63;;;17.73;100.00
65190;BME280;51777;53.570;9.984;2023-07-08T04:43:53;101868.31;;;17.76;100.00
65190;BME280;51777;53.570;9.984;2023-07-08T04:46:29;101866.34;;;17.86;100.00
65190;BME280;51777;53.570;9.984;2023-07-08T04:49:01;101865.16;;;17.97;100.00
65190;BME280;51777;53.570;9.984;2023-07-08T04:51:26;101876.16;;;18.00;100.00
65190;BME280;51777;53.570;9.984;2023-07-08T04:53:52;101878.41;;;18.03;100.00
65190;BME280;51777;53.570;9.984;2023-07-08T04:56:17;101879.06;;;18.05;100.00
65190;BME280;51777;53.570;9.984;2023-07-08T04:58:42;101879.53;;;18.09;100.00
65190;BME280;51777;53.570;9.984;2023-07-08T05:01:08;101879.03;;;18.22;100.00
65190;BME280;51777;53.570;9.984;2023-07-08T05:03:33;101876.72;;;18.27;100.00
65190;BME280;51777;53.570;9.984;2023-07-08T05:05:58;101875.06;;;18.34;100.00
65190;BME280;51777;53.570;9.984;2023-07-08T05:08:24;101871.94;;;18.38;100.00
65190;BME280;51777;53.570;9.984;2023-07-08T05:10:49;101862.94;;;18.41;100.00
65190;BME280;51777;53.570;9.984;2023-07-08T05:13:15;101867.00;;;18.43;100.00
65190;BME280;51777;53.570;9.984;2023-07-08T05:15:40;101871.72;;;18.56;100.00
65190;BME280;51777;53.570;9.984;2023-07-08T05:18:05;101872.19;;;18.68;100.00
65190;BME280;51777;53.570;9.984;2023-07-08T05:20:31;101873.16;;;18.75;100.00
65190;BME280;51777;53.570;9.984;2023-07-08T05:22:59;101867.84;;;18.83;100.00
65190;BME280;51777;53.570;9.984;2023-07-08T05:25:24;101872.41;;;18.89;100.00
65190;BME280;51777;53.570;9.984;2023-07-08T05:27:50;101867.63;;;18.93;100.00
65190;BME280;51777;53.570;9.984;2023-07-08T05:30:17;101866.47;;;18.95;100.00
65190;BME280;51777;53.570;9.984;2023-07-08T05:32:43;101873.75;;;19.08;100.00
65190;BME280;51777;53.570;9.984;2023-07-08T05:35:09;101873.38;;;19.19;100.00
65190;BME280;51777;53.570;9.984;2023-07-08T05:37:34;101873.13;;;19.29;100.00
65190;BME280;51777;53.570;9.984;2023-07-08T05:40:00;101875.22;;;19.33;100.00
65190;BME280;51777;53.570;9.984;2023-07-08T05:42:28;101870.75;;;19.42;100.00
65190;BME280;51777;53.570;9.984;2023-07-08T05:44:53;101873.75;;;19.54;100.00
65190;BME280;51777;53.570;9.984;2023-07-08T05:47:20;101871.31;;;19.60;100.00
65190;BME280;51777;53.570;9.984;2023-07-08T05:49:46;101869.06;;;19.72;100.00
65190;BME280;51777;53.570;9.984;2023-07-08T05:52:12;101876.22;;;19.78;100.00
65190;BME280;51777;53.570;9.984;2023-07-08T05:54:38;101872.22;;;19.82;100.00
65190;BME280;51777;53.570;9.984;2023-07-08T05:57:06;101872.44;;;19.95;100.00
65190;BME280;51777;53.570;9.984;2023-07-08T05:59:31;101864.66;;;20.02;100.00
65190;BME280;51777;53.570;9.984;2023-07-08T06:01:57;101871.66;;;20.10;100.00
65190;BME280;51777;53.570;9.984;2023-07-08T06:04:22;101867.22;;;20.25;100.00
65190;BME280;51777;53.570;9.984;2023-07-08T06:06:48;101863.41;;;20.28;100.00
65190;BME280;51777;53.570;9.984;2023-07-08T06:09:13;101868.19;;;20.39;100.00
65190;BME280;51777;53.570;9.984;2023-07-08T06:11:38;101878.47;;;20.48;100.00
65190;BME280;51777;53.570;9.984;2023-07-08T06:14:04;101872.47;;;20.55;100.00
65190;BME280;51777;53.570;9.984;2023-07-08T06:16:30;101870.38;;;20.65;100.00
65190;BME280;51777;53.570;9.984;2023-07-08T06:18:56;101875.88;;;20.70;100.00
65190;BME280;51777;53.570;9.984;2023-07-08T06:21:23;101878.59;;;20.76;100.00
65190;BME280;51777;53.570;9.984;2023-07-08T06:23:48;101878.56;;;20.91;100.00
65190;BME280;51777;53.570;9.984;2023-07-08T06:26:14;101879.06;;;21.01;100.00
65190;BME280;51777;53.570;9.984;2023-07-08T06:28:39;101879.59;;;21.11;100.00
65190;BME280;51777;53.570;9.984;2023-07-08T06:31:04;101885.09;;;21.17;100.00
65190;BME280;51777;53.570;9.984;2023-07-08T06:33:30;101880.91;;;21.22;100.00
65190;BME280;51777;53.570;9.984;2023-07-08T06:35:55;101882.34;;;21.25;100.00
65190;BME280;51777;53.570;9.984;2023-07-08T06:38:20;101878.25;;;21.37;100.00
65190;BME280;51777;53.570;9.984;2023-07-08T06:40:46;101872.81;;;21.45;100.00
65190;BME280;51777;53.570;9.984;2023-07-08T06:43:11;101872.09;;;21.51;100.00
65190;BME280;51777;53.570;9.984;2023-07-08T06:45:37;101868.88;;;21.56;100.00
65190;BME280;51777;53.570;9.984;2023-07-08T06:48:02;101877.22;;;21.59;100.00
65190;BME280;51777;53.570;9.984;2023-07-08T06:50:28;101878.47;;;21.63;100.00
65190;BME280;51777;53.570;9.984;2023-07-08T06:52:53;101871.97;;;21.59;100.00
65190;BME280;51777;53.570;9.984;2023-07-08T06:55:19;101879.50;;;21.69;100.00
65190;BME280;51777;53.570;9.984;2023-07-08T06:57:44;101877.94;;;21.75;100.00
65190;BME280;51777;53.570;9.984;2023-07-08T07:00:11;101878.03;;;21.88;100.00
65190;BME280;51777;53.570;9.984;2023-07-08T07:02:37;101885.34;;;21.92;100.00
65190;BME280;51777;53.570;9.984;2023-07-08T07:05:03;101878.13;;;22.01;100.00
65190;BME280;51777;53.570;9.984;2023-07-08T07:07:29;101880.44;;;22.11;100.00
65190;BME280;51777;53.570;9.984;2023-07-08T07:09:54;101873.81;;;22.21;100.00
65190;BME280;51777;53.570;9.984;2023-07-08T07:12:20;101869.13;;;22.17;100.00
65190;BME280;51777;53.570;9.984;2023-07-08T07:14:46;101863.72;;;22.32;100.00
65190;BME280;51777;53.570;9.984;2023-07-08T07:17:14;101861.53;;;22.42;100.00
65190;BME280;51777;53.570;9.984;2023-07-08T07:19:40;101864.63;;;22.45;100.00
65190;BME280;51777;53.570;9.984;2023-07-08T07:22:05;101868.28;;;22.51;100.00
65190;BME280;51777;53.570;9.984;2023-07-08T07:24:32;101866.31;;;22.66;100.00
65190;BME280;51777;53.570;9.984;2023-07-08T07:26:57;101877.03;;;22.65;100.00
65190;BME280;51777;53.570;9.984;2023-07-08T07:29:23;101872.44;;;22.80;100.00
65190;BME280;51777;53.570;9.984;2023-07-08T07:31:49;101871.88;;;22.84;100.00
65190;BME280;51777;53.570;9.984;2023-07-08T07:34:16;101874.56;;;22.98;100.00
65190;BME280;51777;53.570;9.984;2023-07-08T07:36:42;101862.56;;;23.02;100.00
65190;BME280;51777;53.570;9.984;2023-07-08T07:39:07;101871.72;;;23.19;100.00
65190;BME280;51777;53.570;9.984;2023-07-08T07:41:33;101863.81;;;23.26;100.00
65190;BME280;51777;53.570;9.984;2023-07-08T07:43:59;101866.88;;;23.36;100.00
65190;BME280;51777;53.570;9.984;2023-07-08T07:46:24;101873.38;;;23.40;100.00
65190;BME280;51777;53.570;9.984;2023-07-08T07:48:50;101861.22;;;23.46;100.00
65190;BME280;51777;53.570;9.984;2023-07-08T07:51:15;101864.91;;;23.58;100.00
65190;BME280;51777;53.570;9.984;2023-07-08T07:53:41;101863.03;;;23.65;100.00
65190;BME280;51777;53.570;9.984;2023-07-08T07:56:07;101863.25;;;23.83;100.00
65190;BME280;51777;53.570;9.984;2023-07-08T07:58:33;101860.81;;;23.68;100.00
65190;BME280;51777;53.570;9.984;2023-07-08T08:00:58;101863.22;;;23.90;100.00
65190;BME280;51777;53.570;9.984;2023-07-08T08:03:24;101864.16;;;24.15;100.00
65190;BME280;51777;53.570;9.984;2023-07-08T08:05:50;101866.38;;;24.25;100.00
65190;BME280;51777;53.570;9.984;2023-07-08T08:08:15;101853.78;;;24.34;100.00
65190;BME280;51777;53.570;9.984;2023-07-08T08:10:42;101859.81;;;24.47;100.00
65190;BME280;51777;53.570;9.984;2023-07-08T08:13:08;101860.19;;;24.57;100.00
65190;BME280;51777;53.570;9.984;2023-07-08T08:15:34;101866.59;;;24.81;100.00
65190;BME280;51777;53.570;9.984;2023-07-08T08:17:59;101867.09;;;25.78;100.00
65190;BME280;51777;53.570;9.984;2023-07-08T08:20:25;101874.22;;;27.29;100.00
65190;BME280;51777;53.570;9.984;2023-07-08T08:22:51;101883.56;;;30.00;100.00
65190;BME280;51777;53.570;9.984;2023-07-08T08:25:18;101895.34;;;32.91;100.00
65190;BME280;51777;53.570;9.984;2023-07-08T08:27:44;101905.44;;;33.80;98.25
65190;BME280;51777;53.570;9.984;2023-07-08T08:30:10;101903.88;;;32.62;100.00
65190;BME280;51777;53.570;9.984;2023-07-08T08:32:35;101899.56;;;32.56;100.00
65190;BME280;51777;53.570;9.984;2023-07-08T08:35:01;101914.50;;;35.03;97.85
65190;BME280;51777;53.570;9.984;2023-07-08T08:37:27;101912.81;;;36.94;95.01
65190;BME280;51777;53.570;9.984;2023-07-08T08:39:52;101913.66;;;37.41;94.55
65190;BME280;51777;53.570;9.984;2023-07-08T08:42:28;101924.34;;;37.46;93.10
65190;BME280;51777;53.570;9.984;2023-07-08T08:44:54;101933.53;;;38.99;92.83
65190;BME280;51777;53.570;9.984;2023-07-08T08:47:38;101936.84;;;38.96;91.47
65190;BME280;51777;53.570;9.984;2023-07-08T08:52:51;101938.78;;;39.27;91.10
65190;BME280;51777;53.570;9.984;2023-07-08T08:55:21;101942.19;;;40.55;90.23
65190;BME280;51777;53.570;9.984;2023-07-08T09:00:46;101945.88;;;40.94;90.16
65190;BME280;51777;53.570;9.984;2023-07-08T09:03:18;101921.84;;;39.92;90.99
65190;BME280;51777;53.570;9.984;2023-07-08T09:05:46;101931.84;;;40.57;90.47
65190;BME280;51777;53.570;9.984;2023-07-08T09:08:16;101923.03;;;40.08;90.47
65190;BME280;51777;53.570;9.984;2023-07-08T09:10:56;101907.16;;;38.83;91.52
65190;BME280;51777;53.570;9.984;2023-07-08T09:13:34;101915.19;;;39.98;90.59
65190;BME280;51777;53.570;9.984;2023-07-08T09:18:59;101914.72;;;39.56;90.97
65190;BME280;51777;53.570;9.984;2023-07-08T09:21:34;101917.03;;;39.41;90.64
65190;BME280;51777;53.570;9.984;2023-07-08T09:24:07;101918.66;;;39.90;90.38
65190;BME280;51777;53.570;9.984;2023-07-08T09:26:35;101927.66;;;40.25;90.61
65190;BME280;51777;53.570;9.984;2023-07-08T09:29:01;101911.50;;;39.15;90.71
65190;BME280;51777;53.570;9.984;2023-07-08T09:31:30;101912.75;;;38.86;90.80
65190;BME280;51777;53.570;9.984;2023-07-08T09:34:19;101903.22;;;39.51;90.35
65190;BME280;51777;53.570;9.984;2023-07-08T09:36:47;101912.25;;;41.33;89.46
65190;BME280;51777;53.570;9.984;2023-07-08T09:39:14;101912.94;;;41.51;89.38
65190;BME280;51777;53.570;9.984;2023-07-08T09:41:42;101914.25;;;40.98;89.65
65190;BME280;51777;53.570;9.984;2023-07-08T09:44:28;101899.88;;;38.92;90.49
65190;BME280;51777;53.570;9.984;2023-07-08T09:46:57;101901.78;;;39.14;90.84
65190;BME280;51777;53.570;9.984;2023-07-08T09:49:31;101897.00;;;39.11;90.95
65190;BME280;51777;53.570;9.984;2023-07-08T09:51:57;101907.31;;;39.71;90.45
65190;BME280;51777;53.570;9.984;2023-07-08T09:54:24;101907.88;;;40.25;90.20
65190;BME280;51777;53.570;9.984;2023-07-08T09:57:05;101910.22;;;39.91;89.93
65190;BME280;51777;53.570;9.984;2023-07-08T09:59:46;101906.28;;;39.98;89.83
65190;BME280;51777;53.570;9.984;2023-07-08T10:04:52;101910.94;;;40.32;90.19
65190;BME280;51777;53.570;9.984;2023-07-08T10:07:18;101904.59;;;41.18;89.81
65190;BME280;51777;53.570;9.984;2023-07-08T10:09:47;101890.19;;;40.70;89.46
65190;BME280;51777;53.570;9.984;2023-07-08T10:12:15;101898.25;;;39.35;90.65
65190;BME280;51777;53.570;9.984;2023-07-08T10:14:50;101893.13;;;39.34;91.12
65190;BME280;51777;53.570;9.984;2023-07-08T10:17:19;101877.09;;;37.02;92.99
65190;BME280;51777;53.570;9.984;2023-07-08T10:19:45;101873.66;;;37.70;92.40
65190;BME280;51777;53.570;9.984;2023-07-08T10:22:41;101874.19;;;36.98;92.70
65190;BME280;51777;53.570;9.984;2023-07-08T10:42:52;101876.66;;;39.13;91.15
65190;BME280;51777;53.570;9.984;2023-07-08T10:54:13;101860.59;;;37.77;91.79
65190;BME280;51777;53.570;9.984;2023-07-08T11:02:36;101847.25;;;36.47;93.06
65190;BME280;51777;53.570;9.984;2023-07-08T11:07:57;101841.53;;;36.11;93.21
65190;BME280;51777;53.570;9.984;2023-07-08T11:13:18;101836.13;;;36.30;93.50
65190;BME280;51777;53.570;9.984;2023-07-08T11:16:14;101843.25;;;36.58;92.37
65190;BME280;51777;53.570;9.984;2023-07-08T11:18:56;101836.13;;;36.30;92.86
65190;BME280;51777;53.570;9.984;2023-07-08T11:21:32;101840.06;;;36.56;92.88
65190;BME280;51777;53.570;9.984;2023-07-08T11:27:01;101843.75;;;37.12;92.46
65190;BME280;51777;53.570;9.984;2023-07-08T11:29:46;101845.28;;;37.73;92.13
65190;BME280;51777;53.570;9.984;2023-07-08T11:32:16;101842.56;;;37.45;91.66
65190;BME280;51777;53.570;9.984;2023-07-08T11:34:44;101839.50;;;36.92;92.00
65190;BME280;51777;53.570;9.984;2023-07-08T11:37:15;101840.03;;;36.75;92.88
65190;BME280;51777;53.570;9.984;2023-07-08T11:39:43;101839.41;;;36.64;92.33
65190;BME280;51777;53.570;9.984;2023-07-08T11:44:59;101841.78;;;37.72;91.19
65190;BME280;51777;53.570;9.984;2023-07-08T11:49:56;101833.97;;;37.57;91.05
65190;BME280;51777;53.570;9.984;2023-07-08T11:52:23;101830.63;;;38.60;90.68
65190;BME280;51777;53.570;9.984;2023-07-08T11:55:08;101835.91;;;38.87;90.59
65190;BME280;51777;53.570;9.984;2023-07-08T11:57:42;101831.50;;;38.10;90.26
65190;BME280;51777;53.570;9.984;2023-07-08T12:00:25;101831.25;;;38.79;90.22
65190;BME280;51777;53.570;9.984;2023-07-08T12:03:21;101825.00;;;38.70;90.31
65190;BME280;51777;53.570;9.984;2023-07-08T12:05:50;101823.81;;;38.04;90.32
65190;BME280;51777;53.570;9.984;2023-07-08T12:08:18;101814.88;;;36.98;91.49
65190;BME280;51777;53.570;9.984;2023-07-08T12:10:52;101813.97;;;37.72;90.95
65190;BME280;51777;53.570;9.984;2023-07-08T12:13:21;101807.84;;;38.52;90.37
65190;BME280;51777;53.570;9.984;2023-07-08T12:15:48;101820.88;;;38.72;90.55
65190;BME280;51777;53.570;9.984;2023-07-08T12:18:19;101819.38;;;38.44;90.24
65190;BME280;51777;53.570;9.984;2023-07-08T12:20:47;101814.88;;;37.67;90.67
65190;BME280;51777;53.570;9.984;2023-07-08T12:23:21;101811.16;;;38.27;89.76
65190;BME280;51777;53.570;9.984;2023-07-08T12:25:49;101808.97;;;37.65;90.26
65190;BME280;51777;53.570;9.984;2023-07-08T12:28:15;101829.66;;;38.78;89.93
65190;BME280;51777;53.570;9.984;2023-07-08T12:30:42;101817.25;;;39.56;89.13
65190;BME280;51777;53.570;9.984;2023-07-08T12:33:22;101823.88;;;40.07;88.67
65190;BME280;51777;53.570;9.984;2023-07-08T12:35:51;101812.31;;;38.79;89.93
65190;BME280;51777;53.570;9.984;2023-07-08T12:40:45;101804.88;;;40.33;89.38
65190;BME280;51777;53.570;9.984;2023-07-08T12:43:11;101808.06;;;39.92;88.97
65190;BME280;51777;53.570;9.984;2023-07-08T12:45:37;101813.69;;;39.39;89.91
65190;BME280;51777;53.570;9.984;2023-07-08T12:48:02;101800.78;;;39.35;89.71
65190;BME280;51777;53.570;9.984;2023-07-08T12:50:28;101809.69;;;40.10;88.79
65190;BME280;51777;53.570;9.984;2023-07-08T12:52:54;101800.72;;;40.53;88.50
65190;BME280;51777;53.570;9.984;2023-07-08T12:55:21;101808.22;;;39.78;89.25
65190;BME280;51777;53.570;9.984;2023-07-08T12:57:49;101804.44;;;39.31;89.54
65190;BME280;51777;53.570;9.984;2023-07-08T13:00:26;101788.16;;;38.83;89.71
65190;BME280;51777;53.570;9.984;2023-07-08T13:03:16;101795.75;;;38.72;89.64
65190;BME280;51777;53.570;9.984;2023-07-08T13:05:44;101799.41;;;39.07;89.94
65190;BME280;51777;53.570;9.984;2023-07-08T13:08:12;101785.25;;;37.89;89.87
65190;BME280;51777;53.570;9.984;2023-07-08T13:10:39;101780.78;;;37.71;90.59
65190;BME280;51777;53.570;9.984;2023-07-08T13:13:07;101778.59;;;38.09;90.15
65190;BME280;51777;53.570;9.984;2023-07-08T13:15:36;101776.44;;;38.20;89.67
65190;BME280;51777;53.570;9.984;2023-07-08T13:18:08;101770.81;;;37.03;90.74
65190;BME280;51777;53.570;9.984;2023-07-08T13:20:38;101764.63;;;37.94;90.42
65190;BME280;51777;53.570;9.984;2023-07-08T13:23:04;101767.81;;;37.18;90.71
65190;BME280;51777;53.570;9.984;2023-07-08T13:25:31;101769.69;;;36.90;91.19
65190;BME280;51777;53.570;9.984;2023-07-08T13:28:27;101766.66;;;36.78;91.10
65190;BME280;51777;53.570;9.984;2023-07-08T13:30:59;101762.25;;;37.28;90.37
65190;BME280;51777;53.570;9.984;2023-07-08T13:33:30;101760.38;;;36.83;90.77
65190;BME280;51777;53.570;9.984;2023-07-08T13:35:56;101756.63;;;37.11;89.67
65190;BME280;51777;53.570;9.984;2023-07-08T13:38:25;101760.38;;;36.83;90.05
65190;BME280;51777;53.570;9.984;2023-07-08T13:41:00;101755.03;;;36.50;91.27
65190;BME280;51777;53.570;9.984;2023-07-08T13:43:27;101753.59;;;36.71;90.48
65190;BME280;51777;53.570;9.984;2023-07-08T13:45:54;101751.34;;;36.08;91.71
65190;BME280;51777;53.570;9.984;2023-07-08T13:51:07;101739.56;;;36.04;91.62
65190;BME280;51777;53.570;9.984;2023-07-08T13:53:45;101744.72;;;36.38;91.91